Noble House — ZCNF5 — position and weather

sailwx.info

Track history (hours):
 
Tides and Currents Weather Stations Pressure Air Temp Water Temp Dewpoint Dewpoint Depression Visibility Wind Speed Wind Dir Waves Ship Positions

Noble House

Last reported at 2018-Apr-29 06:47 UTC. Time now 2018-Jun-20 07:54 UTC.
Position N 14°23' W 061°05'.
Warning: this ship's position is 52 days out of date.

Length 50 m; draft 3.5 m.

Type: Pleasure craft. MMSI: 319019000.

Date/timePositionNaut miles runAvg speedWind from/ knotsBaromVisibWave heightAir tempDewpointWater temp
2018-Apr-29 06:47N 14°23' W 061°05'710.6
2018-Apr-29 06:10N 14°30' W 061°06'0 2.8
2018-Apr-29 06:00N 14°30' W 061°05'0 0.0
2018-Apr-29 05:26N 14°30' W 061°05'0 0.0
2018-Apr-29 04:57N 14°30' W 061°05'0 0.0
2018-Apr-29 04:27N 14°30' W 061°05'0 0.0
2018-Apr-29 04:01N 14°30' W 061°05'0 0.0
2018-Apr-29 03:25N 14°30' W 061°05'0 0.0
2018-Apr-29 03:01N 14°30' W 061°05'0 0.0
2018-Apr-29 02:30N 14°30' W 061°05'0 0.0
2018-Apr-29 01:58N 14°30' W 061°05'0 0.1
2018-Apr-29 01:30N 14°30' W 061°05'6 6.5
2018-Apr-29 00:36N 14°35' W 061°08'0 0.6
2018-Apr-29 00:31N 14°35' W 061°08'5 9.8
2018-Apr-28 23:57N 14°30' W 061°07'1 0.1
2018-Apr-28 01:41N 14°30' W 061°05'0 0.0
2018-Apr-28 01:27N 14°30' W 061°05'0 0.0
2018-Apr-28 00:59N 14°30' W 061°05'0 0.0
2018-Apr-28 00:30N 14°30' W 061°05'0 0.0
2018-Apr-27 23:31N 14°30' W 061°05'0 0.1
2018-Apr-27 23:25N 14°30' W 061°05'0 0.0
2018-Apr-27 22:53N 14°30' W 061°05'0 0.0
2018-Apr-27 22:26N 14°30' W 061°05'0 0.0
2018-Apr-27 21:59N 14°30' W 061°05'0 0.0
2018-Apr-27 21:29N 14°30' W 061°05'0 0.0
2018-Apr-27 20:55N 14°30' W 061°05'0 0.0
2018-Apr-27 20:23N 14°30' W 061°05'0 0.0
2018-Apr-27 19:52N 14°30' W 061°05'0 0.0
2018-Apr-27 19:30N 14°30' W 061°05'2 0.9
2018-Apr-27 17:26N 14°28' W 061°05'3 7.7
2018-Apr-27 17:01N 14°27' W 061°02'4 7.8
2018-Apr-27 16:30N 14°26' W 060°58'4 6.8
2018-Apr-27 15:58N 14°27' W 060°54'2 4.0
2018-Apr-27 15:30N 14°28' W 060°53'1 1.3
2018-Apr-27 14:58N 14°28' W 060°52'0 0.0
2018-Apr-27 14:29N 14°28' W 060°52'0 0.0
2018-Apr-27 13:29N 14°28' W 060°52'0 0.0
2018-Apr-27 13:00N 14°28' W 060°52'0 0.0
2018-Apr-27 12:30N 14°28' W 060°52'0 0.0
2018-Apr-27 12:00N 14°28' W 060°52'0 0.0
2018-Apr-27 11:28N 14°28' W 060°52'0 0.0
2018-Apr-27 10:58N 14°28' W 060°52'0 0.0
2018-Apr-27 10:29N 14°28' W 060°52'0 0.0
2018-Apr-27 09:59N 14°28' W 060°52'0 0.0
2018-Apr-27 09:29N 14°28' W 060°52'0 0.0
2018-Apr-27 08:59N 14°28' W 060°52'0 0.0
2018-Apr-27 08:30N 14°28' W 060°52'0 0.0
2018-Apr-27 08:00N 14°28' W 060°52'0 0.0
2018-Apr-27 07:31N 14°28' W 060°52'0 0.0
2018-Apr-27 06:58N 14°28' W 060°52'0 0.0
2018-Apr-27 06:28N 14°28' W 060°52'0 0.0
2018-Apr-27 05:59N 14°28' W 060°52'0 0.0
2018-Apr-27 05:29N 14°28' W 060°52'0 0.0
2018-Apr-27 04:59N 14°28' W 060°52'0 0.0
2018-Apr-27 04:30N 14°28' W 060°52'0 0.0
2018-Apr-27 04:00N 14°28' W 060°52'0 0.0
2018-Apr-27 03:30N 14°28' W 060°52'0 0.0
2018-Apr-27 03:01N 14°28' W 060°52'0 0.0
2018-Apr-27 02:28N 14°28' W 060°52'0 0.0
2018-Apr-27 01:58N 14°28' W 060°52'0 0.0
2018-Apr-27 01:29N 14°28' W 060°52'0 0.0
2018-Apr-27 00:59N 14°28' W 060°52'0 0.0
2018-Apr-27 00:29N 14°28' W 060°52'0 0.0
2018-Apr-26 23:57N 14°28' W 060°52'0 0.0
2018-Apr-26 23:30N 14°28' W 060°52'0 0.0
2018-Apr-26 23:00N 14°28' W 060°52'0 0.0
2018-Apr-26 22:28N 14°28' W 060°52'0 0.0
2018-Apr-26 21:58N 14°28' W 060°52'0 0.0
2018-Apr-26 21:28N 14°28' W 060°52'0 0.0
2018-Apr-26 20:59N 14°28' W 060°52'0 0.0
2018-Apr-26 20:29N 14°28' W 060°52'0 0.0
2018-Apr-26 19:59N 14°28' W 060°52'0 0.0
2018-Apr-26 19:30N 14°28' W 060°52'0 0.0
2018-Apr-26 19:00N 14°28' W 060°52'0 0.0
2018-Apr-26 18:30N 14°28' W 060°52'0 0.0
2018-Apr-26 17:55N 14°28' W 060°52'0 0.0
2018-Apr-26 17:28N 14°28' W 060°52'0 0.0
2018-Apr-26 16:58N 14°28' W 060°52'0 0.0
2018-Apr-26 16:29N 14°28' W 060°52'0 0.0
2018-Apr-26 15:59N 14°28' W 060°52'0 0.0
2018-Apr-26 15:29N 14°28' W 060°52'0 0.0
2018-Apr-26 15:00N 14°28' W 060°52'0 0.0
2018-Apr-26 14:30N 14°28' W 060°52'0 0.0
2018-Apr-26 14:00N 14°28' W 060°52'0 0.0
2018-Apr-26 13:28N 14°28' W 060°52'0 0.0
2018-Apr-26 12:58N 14°28' W 060°52'0 0.0
2018-Apr-26 12:28N 14°28' W 060°52'0 0.0
2018-Apr-26 11:59N 14°28' W 060°52'0 0.0
2018-Apr-26 11:29N 14°28' W 060°52'0 0.0
2018-Apr-26 10:59N 14°28' W 060°52'0 0.0
2018-Apr-26 10:30N 14°28' W 060°52'0 0.0
2018-Apr-26 10:00N 14°28' W 060°52'0 0.0
2018-Apr-26 09:30N 14°28' W 060°52'0 0.0
2018-Apr-26 08:58N 14°28' W 060°52'0 0.0
2018-Apr-26 08:28N 14°28' W 060°52'0 0.0
2018-Apr-26 07:58N 14°28' W 060°52'0 0.0
2018-Apr-26 07:29N 14°28' W 060°52'0 0.0
2018-Apr-26 06:59N 14°28' W 060°52'0 0.0
2018-Apr-26 06:29N 14°28' W 060°52'0 0.0
2018-Apr-26 06:00N 14°28' W 060°52'0 0.0
2018-Apr-26 05:30N 14°28' W 060°52'0 0.0
2018-Apr-26 05:00N 14°28' W 060°52'0 0.0
2018-Apr-26 04:28N 14°28' W 060°52'0 0.0
2018-Apr-26 03:58N 14°28' W 060°52'0 0.0
2018-Apr-26 03:28N 14°28' W 060°52'0 0.0
2018-Apr-26 02:59N 14°28' W 060°52'0 0.0
2018-Apr-26 02:29N 14°28' W 060°52'0 0.0
2018-Apr-26 01:59N 14°28' W 060°52'0 0.0
2018-Apr-26 01:30N 14°28' W 060°52'0 0.0
2018-Apr-26 01:00N 14°28' W 060°52'0 0.0
2018-Apr-26 00:30N 14°28' W 060°52'0 0.0
2018-Apr-25 23:58N 14°28' W 060°52'0 0.0
2018-Apr-25 23:28N 14°28' W 060°52'0 0.0
2018-Apr-25 22:58N 14°28' W 060°52'0 0.0
2018-Apr-25 22:29N 14°28' W 060°52'0 0.0
2018-Apr-25 21:59N 14°28' W 060°52'0 0.0
2018-Apr-25 21:29N 14°28' W 060°52'0 0.0
2018-Apr-25 21:00N 14°28' W 060°52'0 0.0
2018-Apr-25 20:30N 14°28' W 060°52'0 0.0
2018-Apr-25 20:00N 14°28' W 060°52'0 0.0
2018-Apr-25 19:28N 14°28' W 060°52'0 0.0
2018-Apr-25 18:58N 14°28' W 060°52'0 0.0
2018-Apr-25 18:28N 14°28' W 060°52'0 0.0
2018-Apr-25 17:59N 14°28' W 060°52'0 0.0
2018-Apr-25 17:29N 14°28' W 060°52'0 0.0
2018-Apr-25 16:59N 14°28' W 060°52'0 0.0
2018-Apr-25 16:30N 14°28' W 060°52'0 0.0
2018-Apr-25 16:00N 14°28' W 060°52'0 0.0
2018-Apr-25 15:30N 14°28' W 060°52'0 0.0
2018-Apr-25 14:58N 14°28' W 060°52'0 0.0
2018-Apr-25 14:28N 14°28' W 060°52'0 0.0
2018-Apr-25 13:58N 14°28' W 060°52'0 0.0
2018-Apr-25 13:29N 14°28' W 060°52'0 0.0
2018-Apr-25 12:59N 14°28' W 060°52'0 0.0
2018-Apr-25 12:26N 14°28' W 060°52'0 0.0
2018-Apr-25 12:00N 14°28' W 060°52'0 0.0
2018-Apr-25 11:30N 14°28' W 060°52'0 0.0
2018-Apr-25 11:00N 14°28' W 060°52'0 0.0
2018-Apr-25 10:28N 14°28' W 060°52'0 0.0
2018-Apr-25 09:58N 14°28' W 060°52'0 0.0
2018-Apr-25 09:28N 14°28' W 060°52'0 0.0
2018-Apr-25 08:59N 14°28' W 060°52'0 0.0
2018-Apr-25 08:26N 14°28' W 060°52'0 0.0
2018-Apr-25 07:59N 14°28' W 060°52'0 0.0
2018-Apr-25 07:30N 14°28' W 060°52'0 0.0
2018-Apr-25 07:00N 14°28' W 060°52'0 0.0
2018-Apr-25 06:30N 14°28' W 060°52'0 0.0
2018-Apr-25 05:31N 14°28' W 060°52'0 0.0
2018-Apr-25 05:28N 14°28' W 060°52'0 0.0
2018-Apr-25 04:58N 14°28' W 060°52'0 0.0
2018-Apr-25 04:29N 14°28' W 060°52'0 0.0
2018-Apr-25 03:56N 14°28' W 060°52'0 0.0
2018-Apr-25 03:29N 14°28' W 060°52'0 0.0
2018-Apr-25 03:00N 14°28' W 060°52'0 0.0
2018-Apr-25 02:30N 14°28' W 060°52'0 0.0
2018-Apr-25 02:00N 14°28' W 060°52'0 0.0
2018-Apr-25 01:28N 14°28' W 060°52'0 0.0
2018-Apr-25 00:58N 14°28' W 060°52'0 0.0
2018-Apr-25 00:28N 14°28' W 060°52'0 0.0
2018-Apr-24 23:59N 14°28' W 060°52'0 0.0
2018-Apr-24 23:29N 14°28' W 060°52'0 0.0
2018-Apr-24 22:59N 14°28' W 060°52'0 0.0
2018-Apr-24 22:30N 14°28' W 060°52'0 0.0
2018-Apr-24 22:00N 14°28' W 060°52'0 0.0
2018-Apr-24 21:30N 14°28' W 060°52'0 0.0
2018-Apr-24 20:58N 14°28' W 060°52'0 0.0
2018-Apr-24 20:28N 14°28' W 060°52'0 0.0
2018-Apr-24 19:58N 14°28' W 060°52'0 0.0
2018-Apr-24 19:29N 14°28' W 060°52'0 0.0
2018-Apr-24 18:59N 14°28' W 060°52'0 0.0
2018-Apr-24 18:29N 14°28' W 060°52'0 0.0
2018-Apr-24 18:00N 14°28' W 060°52'0 0.0
2018-Apr-24 17:30N 14°28' W 060°52'0 0.0
2018-Apr-24 17:00N 14°28' W 060°52'0 0.0
2018-Apr-24 16:28N 14°28' W 060°52'0 0.0
2018-Apr-24 15:58N 14°28' W 060°52'0 0.0
2018-Apr-24 15:28N 14°28' W 060°52'0 0.0
2018-Apr-24 14:59N 14°28' W 060°52'0 0.0
2018-Apr-24 14:29N 14°28' W 060°52'0 0.0
2018-Apr-24 13:59N 14°28' W 060°52'0 0.0
2018-Apr-24 13:30N 14°28' W 060°52'0 0.0
2018-Apr-24 13:00N 14°28' W 060°52'0 0.0
2018-Apr-24 12:30N 14°28' W 060°52'0 0.0
2018-Apr-24 11:58N 14°28' W 060°52'0 0.0
2018-Apr-24 11:28N 14°28' W 060°52'0 0.0
2018-Apr-24 10:58N 14°28' W 060°52'0 0.0
2018-Apr-24 10:29N 14°28' W 060°52'0 0.0
2018-Apr-24 09:59N 14°28' W 060°52'0 0.0
2018-Apr-24 09:30N 14°28' W 060°52'0 0.0
2018-Apr-24 09:00N 14°28' W 060°52'0 0.0
2018-Apr-24 08:30N 14°28' W 060°52'0 0.0
2018-Apr-24 07:58N 14°28' W 060°52'0 0.0
2018-Apr-24 07:28N 14°28' W 060°52'0 0.0
2018-Apr-24 06:58N 14°28' W 060°52'0 0.0
2018-Apr-24 06:29N 14°28' W 060°52'0 0.0
2018-Apr-24 05:29N 14°28' W 060°52'0 0.0
2018-Apr-24 04:57N 14°28' W 060°52'0 0.0
2018-Apr-24 04:30N 14°28' W 060°52'0 0.0
2018-Apr-24 04:00N 14°28' W 060°52'0 0.0
2018-Apr-24 03:28N 14°28' W 060°52'0 0.0
2018-Apr-24 02:58N 14°28' W 060°52'0 0.0
2018-Apr-24 02:28N 14°28' W 060°52'0 0.0
2018-Apr-24 01:59N 14°28' W 060°52'0 0.0
2018-Apr-24 01:23N 14°28' W 060°52'0 0.0
2018-Apr-24 00:56N 14°28' W 060°52'0 0.0
2018-Apr-24 00:30N 14°28' W 060°52'0 0.0
2018-Apr-24 00:00N 14°28' W 060°52'0 0.0
2018-Apr-23 23:30N 14°28' W 060°52'0 0.0
2018-Apr-23 23:01N 14°28' W 060°52'0 0.0
2018-Apr-23 22:28N 14°28' W 060°52'0 0.0
2018-Apr-23 21:58N 14°28' W 060°52'0 0.0
2018-Apr-23 21:29N 14°28' W 060°52'0 0.0
2018-Apr-23 20:50N 14°28' W 060°52'0 0.0
2018-Apr-23 20:29N 14°28' W 060°52'0 0.0
2018-Apr-23 19:57N 14°28' W 060°52'0 0.0
2018-Apr-23 19:30N 14°28' W 060°52'0 0.0
2018-Apr-23 18:51N 14°28' W 060°52'0 0.0
2018-Apr-23 18:31N 14°28' W 060°52'0 0.0
2018-Apr-23 17:58N 14°28' W 060°52'0 0.0
2018-Apr-23 12:11N 14°28' W 060°52'0 0.0
2018-Apr-23 11:47N 14°28' W 060°52'0 0.0
2018-Apr-23 11:27N 14°28' W 060°52'0 0.0
2018-Apr-23 09:48N 14°28' W 060°52'0 0.0
2018-Apr-23 09:25N 14°28' W 060°52'0 0.0
2018-Apr-23 08:58N 14°28' W 060°52'0 0.0
2018-Apr-23 08:28N 14°28' W 060°52'0 0.0
2018-Apr-23 07:59N 14°28' W 060°52'0 0.0
2018-Apr-23 07:29N 14°28' W 060°52'0 0.0
2018-Apr-23 06:59N 14°28' W 060°52'0 0.0
2018-Apr-23 06:30N 14°28' W 060°52'0 0.0
2018-Apr-23 06:00N 14°28' W 060°52'0 0.0
2018-Apr-23 05:30N 14°28' W 060°52'0 0.0
2018-Apr-23 04:55N 14°28' W 060°52'0 0.0
2018-Apr-23 04:25N 14°28' W 060°52'0 0.0
2018-Apr-23 03:58N 14°28' W 060°52'0 0.0
2018-Apr-23 03:26N 14°28' W 060°52'0 0.0
2018-Apr-23 02:56N 14°28' W 060°52'0 0.0
2018-Apr-23 02:29N 14°28' W 060°52'0 0.0
2018-Apr-23 01:57N 14°28' W 060°52'0 0.0
2018-Apr-23 01:30N 14°28' W 060°52'0 0.0
2018-Apr-23 01:00N 14°28' W 060°52'0 0.0
2018-Apr-23 00:28N 14°28' W 060°52'0 0.0
2018-Apr-22 23:58N 14°28' W 060°52'0 0.0
2018-Apr-22 23:28N 14°28' W 060°52'0 0.0
2018-Apr-22 22:50N 14°28' W 060°52'0 0.0
2018-Apr-22 22:29N 14°28' W 060°52'0 0.0
2018-Apr-22 21:59N 14°28' W 060°52'0 0.0
2018-Apr-22 21:30N 14°28' W 060°52'0 0.0
2018-Apr-22 21:01N 14°28' W 060°52'0 0.0
2018-Apr-22 20:31N 14°28' W 060°52'0 0.0
2018-Apr-22 20:00N 14°28' W 060°52'1 1.2
2018-Apr-22 19:31N 14°28' W 060°53'1 1.1
2018-Apr-22 19:00N 14°27' W 060°53'1 1.3
2018-Apr-22 18:30N 14°27' W 060°53'3 5.9
2018-Apr-22 18:00N 14°27' W 060°56'510.9
2018-Apr-22 17:30N 14°27' W 061°02'5 7.7
2018-Apr-22 16:55N 14°29' W 061°06'1 0.3
2018-Apr-22 13:19N 14°30' W 061°05'0 0.0
2018-Apr-21 23:17N 14°30' W 061°05'0 0.0
2018-Apr-21 20:30N 14°30' W 061°05'0 0.0
2018-Apr-21 19:55N 14°30' W 061°05'0 0.0
2018-Apr-21 08:12N 14°30' W 061°05'0 0.0
2018-Apr-21 05:29N 14°30' W 061°05'0 0.0
2018-Apr-20 21:01N 14°30' W 061°05'0 0.0
2018-Apr-20 10:05N 14°30' W 061°05'0 4.1
2018-Apr-20 10:00N 14°30' W 061°06'2 3.9
2018-Apr-20 09:30N 14°30' W 061°08'3 6.9
2018-Apr-20 09:01N 14°30' W 061°11'3 6.6
2018-Apr-20 08:30N 14°30' W 061°15'1 1.0
2018-Apr-20 07:57N 14°30' W 061°15'2 3.7
2018-Apr-20 07:27N 14°29' W 061°17'1 3.2
2018-Apr-20 06:59N 14°30' W 061°15'  
Track history (hours):
 
Tides and Currents Weather Stations Pressure Air Temp Water Temp Dewpoint Dewpoint Depression Visibility Wind Speed Wind Dir Waves Ship Positions

Noble House

Last reported at 2018-Apr-29 06:47 UTC. Time now 2018-Jun-20 07:54 UTC.
Position N 14°23' W 061°05'.
Warning: this ship's position is 52 days out of date.

Length 50 m; draft 3.5 m.

Type: Pleasure craft. MMSI: 319019000.

Date/timePositionNaut miles runAvg speedWind from/ knotsBaromVisibWave heightAir tempDewpointWater temp
2018-Apr-29 06:47N 14°23' W 061°05'710.6
2018-Apr-29 06:10N 14°30' W 061°06'0 2.8
2018-Apr-29 06:00N 14°30' W 061°05'0 0.0
2018-Apr-29 05:26N 14°30' W 061°05'0 0.0
2018-Apr-29 04:57N 14°30' W 061°05'0 0.0
2018-Apr-29 04:27N 14°30' W 061°05'0 0.0
2018-Apr-29 04:01N 14°30' W 061°05'0 0.0
2018-Apr-29 03:25N 14°30' W 061°05'0 0.0
2018-Apr-29 03:01N 14°30' W 061°05'0 0.0
2018-Apr-29 02:30N 14°30' W 061°05'0 0.0
2018-Apr-29 01:58N 14°30' W 061°05'0 0.1
2018-Apr-29 01:30N 14°30' W 061°05'6 6.5
2018-Apr-29 00:36N 14°35' W 061°08'0 0.6
2018-Apr-29 00:31N 14°35' W 061°08'5 9.8
2018-Apr-28 23:57N 14°30' W 061°07'1 0.1
2018-Apr-28 01:41N 14°30' W 061°05'0 0.0
2018-Apr-28 01:27N 14°30' W 061°05'0 0.0
2018-Apr-28 00:59N 14°30' W 061°05'0 0.0
2018-Apr-28 00:30N 14°30' W 061°05'0 0.0
2018-Apr-27 23:31N 14°30' W 061°05'0 0.1
2018-Apr-27 23:25N 14°30' W 061°05'0 0.0
2018-Apr-27 22:53N 14°30' W 061°05'0 0.0
2018-Apr-27 22:26N 14°30' W 061°05'0 0.0
2018-Apr-27 21:59N 14°30' W 061°05'0 0.0
2018-Apr-27 21:29N 14°30' W 061°05'0 0.0
2018-Apr-27 20:55N 14°30' W 061°05'0 0.0
2018-Apr-27 20:23N 14°30' W 061°05'0 0.0
2018-Apr-27 19:52N 14°30' W 061°05'0 0.0
2018-Apr-27 19:30N 14°30' W 061°05'2 0.9
2018-Apr-27 17:26N 14°28' W 061°05'3 7.7
2018-Apr-27 17:01N 14°27' W 061°02'4 7.8
2018-Apr-27 16:30N 14°26' W 060°58'4 6.8
2018-Apr-27 15:58N 14°27' W 060°54'2 4.0
2018-Apr-27 15:30N 14°28' W 060°53'1 1.3
2018-Apr-27 14:58N 14°28' W 060°52'0 0.0
2018-Apr-27 14:29N 14°28' W 060°52'0 0.0
2018-Apr-27 13:29N 14°28' W 060°52'0 0.0
2018-Apr-27 13:00N 14°28' W 060°52'0 0.0
2018-Apr-27 12:30N 14°28' W 060°52'0 0.0
2018-Apr-27 12:00N 14°28' W 060°52'0 0.0
2018-Apr-27 11:28N 14°28' W 060°52'0 0.0
2018-Apr-27 10:58N 14°28' W 060°52'0 0.0
2018-Apr-27 10:29N 14°28' W 060°52'0 0.0
2018-Apr-27 09:59N 14°28' W 060°52'0 0.0
2018-Apr-27 09:29N 14°28' W 060°52'0 0.0
2018-Apr-27 08:59N 14°28' W 060°52'0 0.0
2018-Apr-27 08:30N 14°28' W 060°52'0 0.0
2018-Apr-27 08:00N 14°28' W 060°52'0 0.0
2018-Apr-27 07:31N 14°28' W 060°52'0 0.0
2018-Apr-27 06:58N 14°28' W 060°52'0 0.0
2018-Apr-27 06:28N 14°28' W 060°52'0 0.0
2018-Apr-27 05:59N 14°28' W 060°52'0 0.0
2018-Apr-27 05:29N 14°28' W 060°52'0 0.0
2018-Apr-27 04:59N 14°28' W 060°52'0 0.0
2018-Apr-27 04:30N 14°28' W 060°52'0 0.0
2018-Apr-27 04:00N 14°28' W 060°52'0 0.0
2018-Apr-27 03:30N 14°28' W 060°52'0 0.0
2018-Apr-27 03:01N 14°28' W 060°52'0 0.0
2018-Apr-27 02:28N 14°28' W 060°52'0 0.0
2018-Apr-27 01:58N 14°28' W 060°52'0 0.0
2018-Apr-27 01:29N 14°28' W 060°52'0 0.0
2018-Apr-27 00:59N 14°28' W 060°52'0 0.0
2018-Apr-27 00:29N 14°28' W 060°52'0 0.0
2018-Apr-26 23:57N 14°28' W 060°52'0 0.0
2018-Apr-26 23:30N 14°28' W 060°52'0 0.0
2018-Apr-26 23:00N 14°28' W 060°52'0 0.0
2018-Apr-26 22:28N 14°28' W 060°52'0 0.0
2018-Apr-26 21:58N 14°28' W 060°52'0 0.0
2018-Apr-26 21:28N 14°28' W 060°52'0 0.0
2018-Apr-26 20:59N 14°28' W 060°52'0 0.0
2018-Apr-26 20:29N 14°28' W 060°52'0 0.0
2018-Apr-26 19:59N 14°28' W 060°52'0 0.0
2018-Apr-26 19:30N 14°28' W 060°52'0 0.0
2018-Apr-26 19:00N 14°28' W 060°52'0 0.0
2018-Apr-26 18:30N 14°28' W 060°52'0 0.0
2018-Apr-26 17:55N 14°28' W 060°52'0 0.0
2018-Apr-26 17:28N 14°28' W 060°52'0 0.0
2018-Apr-26 16:58N 14°28' W 060°52'0 0.0
2018-Apr-26 16:29N 14°28' W 060°52'0 0.0
2018-Apr-26 15:59N 14°28' W 060°52'0 0.0
2018-Apr-26 15:29N 14°28' W 060°52'0 0.0
2018-Apr-26 15:00N 14°28' W 060°52'0 0.0
2018-Apr-26 14:30N 14°28' W 060°52'0 0.0
2018-Apr-26 14:00N 14°28' W 060°52'0 0.0
2018-Apr-26 13:28N 14°28' W 060°52'0 0.0
2018-Apr-26 12:58N 14°28' W 060°52'0 0.0
2018-Apr-26 12:28N 14°28' W 060°52'0 0.0
2018-Apr-26 11:59N 14°28' W 060°52'0 0.0
2018-Apr-26 11:29N 14°28' W 060°52'0 0.0
2018-Apr-26 10:59N 14°28' W 060°52'0 0.0
2018-Apr-26 10:30N 14°28' W 060°52'0 0.0
2018-Apr-26 10:00N 14°28' W 060°52'0 0.0
2018-Apr-26 09:30N 14°28' W 060°52'0 0.0
2018-Apr-26 08:58N 14°28' W 060°52'0 0.0
2018-Apr-26 08:28N 14°28' W 060°52'0 0.0
2018-Apr-26 07:58N 14°28' W 060°52'0 0.0
2018-Apr-26 07:29N 14°28' W 060°52'0 0.0
2018-Apr-26 06:59N 14°28' W 060°52'0 0.0
2018-Apr-26 06:29N 14°28' W 060°52'0 0.0
2018-Apr-26 06:00N 14°28' W 060°52'0 0.0
2018-Apr-26 05:30N 14°28' W 060°52'0 0.0
2018-Apr-26 05:00N 14°28' W 060°52'0 0.0
2018-Apr-26 04:28N 14°28' W 060°52'0 0.0
2018-Apr-26 03:58N 14°28' W 060°52'0 0.0
2018-Apr-26 03:28N 14°28' W 060°52'0 0.0
2018-Apr-26 02:59N 14°28' W 060°52'0 0.0
2018-Apr-26 02:29N 14°28' W 060°52'0 0.0
2018-Apr-26 01:59N 14°28' W 060°52'0 0.0
2018-Apr-26 01:30N 14°28' W 060°52'0 0.0
2018-Apr-26 01:00N 14°28' W 060°52'0 0.0
2018-Apr-26 00:30N 14°28' W 060°52'0 0.0
2018-Apr-25 23:58N 14°28' W 060°52'0 0.0
2018-Apr-25 23:28N 14°28' W 060°52'0 0.0
2018-Apr-25 22:58N 14°28' W 060°52'0 0.0
2018-Apr-25 22:29N 14°28' W 060°52'0 0.0
2018-Apr-25 21:59N 14°28' W 060°52'0 0.0
2018-Apr-25 21:29N 14°28' W 060°52'0 0.0
2018-Apr-25 21:00N 14°28' W 060°52'0 0.0
2018-Apr-25 20:30N 14°28' W 060°52'0 0.0
2018-Apr-25 20:00N 14°28' W 060°52'0 0.0
2018-Apr-25 19:28N 14°28' W 060°52'0 0.0
2018-Apr-25 18:58N 14°28' W 060°52'0 0.0
2018-Apr-25 18:28N 14°28' W 060°52'0 0.0
2018-Apr-25 17:59N 14°28' W 060°52'0 0.0
2018-Apr-25 17:29N 14°28' W 060°52'0 0.0
2018-Apr-25 16:59N 14°28' W 060°52'0 0.0
2018-Apr-25 16:30N 14°28' W 060°52'0 0.0
2018-Apr-25 16:00N 14°28' W 060°52'0 0.0
2018-Apr-25 15:30N 14°28' W 060°52'0 0.0
2018-Apr-25 14:58N 14°28' W 060°52'0 0.0
2018-Apr-25 14:28N 14°28' W 060°52'0 0.0
2018-Apr-25 13:58N 14°28' W 060°52'0 0.0
2018-Apr-25 13:29N 14°28' W 060°52'0 0.0
2018-Apr-25 12:59N 14°28' W 060°52'0 0.0
2018-Apr-25 12:26N 14°28' W 060°52'0 0.0
2018-Apr-25 12:00N 14°28' W 060°52'0 0.0
2018-Apr-25 11:30N 14°28' W 060°52'0 0.0
2018-Apr-25 11:00N 14°28' W 060°52'0 0.0
2018-Apr-25 10:28N 14°28' W 060°52'0 0.0
2018-Apr-25 09:58N 14°28' W 060°52'0 0.0
2018-Apr-25 09:28N 14°28' W 060°52'0 0.0
2018-Apr-25 08:59N 14°28' W 060°52'0 0.0
2018-Apr-25 08:26N 14°28' W 060°52'0 0.0
2018-Apr-25 07:59N 14°28' W 060°52'0 0.0
2018-Apr-25 07:30N 14°28' W 060°52'0 0.0
2018-Apr-25 07:00N 14°28' W 060°52'0 0.0
2018-Apr-25 06:30N 14°28' W 060°52'0 0.0
2018-Apr-25 05:31N 14°28' W 060°52'0 0.0
2018-Apr-25 05:28N 14°28' W 060°52'0 0.0
2018-Apr-25 04:58N 14°28' W 060°52'0 0.0
2018-Apr-25 04:29N 14°28' W 060°52'0 0.0
2018-Apr-25 03:56N 14°28' W 060°52'0 0.0
2018-Apr-25 03:29N 14°28' W 060°52'0 0.0
2018-Apr-25 03:00N 14°28' W 060°52'0 0.0
2018-Apr-25 02:30N 14°28' W 060°52'0 0.0
2018-Apr-25 02:00N 14°28' W 060°52'0 0.0
2018-Apr-25 01:28N 14°28' W 060°52'0 0.0
2018-Apr-25 00:58N 14°28' W 060°52'0 0.0
2018-Apr-25 00:28N 14°28' W 060°52'0 0.0
2018-Apr-24 23:59N 14°28' W 060°52'0 0.0
2018-Apr-24 23:29N 14°28' W 060°52'0 0.0
2018-Apr-24 22:59N 14°28' W 060°52'0 0.0
2018-Apr-24 22:30N 14°28' W 060°52'0 0.0
2018-Apr-24 22:00N 14°28' W 060°52'0 0.0
2018-Apr-24 21:30N 14°28' W 060°52'0 0.0
2018-Apr-24 20:58N 14°28' W 060°52'0 0.0
2018-Apr-24 20:28N 14°28' W 060°52'0 0.0
2018-Apr-24 19:58N 14°28' W 060°52'0 0.0
2018-Apr-24 19:29N 14°28' W 060°52'0 0.0
2018-Apr-24 18:59N 14°28' W 060°52'0 0.0
2018-Apr-24 18:29N 14°28' W 060°52'0 0.0
2018-Apr-24 18:00N 14°28' W 060°52'0 0.0
2018-Apr-24 17:30N 14°28' W 060°52'0 0.0
2018-Apr-24 17:00N 14°28' W 060°52'0 0.0
2018-Apr-24 16:28N 14°28' W 060°52'0 0.0
2018-Apr-24 15:58N 14°28' W 060°52'0 0.0
2018-Apr-24 15:28N 14°28' W 060°52'0 0.0
2018-Apr-24 14:59N 14°28' W 060°52'0 0.0
2018-Apr-24 14:29N 14°28' W 060°52'0 0.0
2018-Apr-24 13:59N 14°28' W 060°52'0 0.0
2018-Apr-24 13:30N 14°28' W 060°52'0 0.0
2018-Apr-24 13:00N 14°28' W 060°52'0 0.0
2018-Apr-24 12:30N 14°28' W 060°52'0 0.0
2018-Apr-24 11:58N 14°28' W 060°52'0 0.0
2018-Apr-24 11:28N 14°28' W 060°52'0 0.0
2018-Apr-24 10:58N 14°28' W 060°52'0 0.0
2018-Apr-24 10:29N 14°28' W 060°52'0 0.0
2018-Apr-24 09:59N 14°28' W 060°52'0 0.0
2018-Apr-24 09:30N 14°28' W 060°52'0 0.0
2018-Apr-24 09:00N 14°28' W 060°52'0 0.0
2018-Apr-24 08:30N 14°28' W 060°52'0 0.0
2018-Apr-24 07:58N 14°28' W 060°52'0 0.0
2018-Apr-24 07:28N 14°28' W 060°52'0 0.0
2018-Apr-24 06:58N 14°28' W 060°52'0 0.0
2018-Apr-24 06:29N 14°28' W 060°52'0 0.0
2018-Apr-24 05:29N 14°28' W 060°52'0 0.0
2018-Apr-24 04:57N 14°28' W 060°52'0 0.0
2018-Apr-24 04:30N 14°28' W 060°52'0 0.0
2018-Apr-24 04:00N 14°28' W 060°52'0 0.0
2018-Apr-24 03:28N 14°28' W 060°52'0 0.0
2018-Apr-24 02:58N 14°28' W 060°52'0 0.0
2018-Apr-24 02:28N 14°28' W 060°52'0 0.0
2018-Apr-24 01:59N 14°28' W 060°52'0 0.0
2018-Apr-24 01:23N 14°28' W 060°52'0 0.0
2018-Apr-24 00:56N 14°28' W 060°52'0 0.0
2018-Apr-24 00:30N 14°28' W 060°52'0 0.0
2018-Apr-24 00:00N 14°28' W 060°52'0 0.0
2018-Apr-23 23:30N 14°28' W 060°52'0 0.0
2018-Apr-23 23:01N 14°28' W 060°52'0 0.0
2018-Apr-23 22:28N 14°28' W 060°52'0 0.0
2018-Apr-23 21:58N 14°28' W 060°52'0 0.0
2018-Apr-23 21:29N 14°28' W 060°52'0 0.0
2018-Apr-23 20:50N 14°28' W 060°52'0 0.0
2018-Apr-23 20:29N 14°28' W 060°52'0 0.0
2018-Apr-23 19:57N 14°28' W 060°52'0 0.0
2018-Apr-23 19:30N 14°28' W 060°52'0 0.0
2018-Apr-23 18:51N 14°28' W 060°52'0 0.0
2018-Apr-23 18:31N 14°28' W 060°52'0 0.0
2018-Apr-23 17:58N 14°28' W 060°52'0 0.0
2018-Apr-23 12:11N 14°28' W 060°52'0 0.0
2018-Apr-23 11:47N 14°28' W 060°52'0 0.0
2018-Apr-23 11:27N 14°28' W 060°52'0 0.0
2018-Apr-23 09:48N 14°28' W 060°52'0 0.0
2018-Apr-23 09:25N 14°28' W 060°52'0 0.0
2018-Apr-23 08:58N 14°28' W 060°52'0 0.0
2018-Apr-23 08:28N 14°28' W 060°52'0 0.0
2018-Apr-23 07:59N 14°28' W 060°52'0 0.0
2018-Apr-23 07:29N 14°28' W 060°52'0 0.0
2018-Apr-23 06:59N 14°28' W 060°52'0 0.0
2018-Apr-23 06:30N 14°28' W 060°52'0 0.0
2018-Apr-23 06:00N 14°28' W 060°52'0 0.0
2018-Apr-23 05:30N 14°28' W 060°52'0 0.0
2018-Apr-23 04:55N 14°28' W 060°52'0 0.0
2018-Apr-23 04:25N 14°28' W 060°52'0 0.0
2018-Apr-23 03:58N 14°28' W 060°52'0 0.0
2018-Apr-23 03:26N 14°28' W 060°52'0 0.0
2018-Apr-23 02:56N 14°28' W 060°52'0 0.0
2018-Apr-23 02:29N 14°28' W 060°52'0 0.0
2018-Apr-23 01:57N 14°28' W 060°52'0 0.0
2018-Apr-23 01:30N 14°28' W 060°52'0 0.0
2018-Apr-23 01:00N 14°28' W 060°52'0 0.0
2018-Apr-23 00:28N 14°28' W 060°52'0 0.0
2018-Apr-22 23:58N 14°28' W 060°52'0 0.0
2018-Apr-22 23:28N 14°28' W 060°52'0 0.0
2018-Apr-22 22:50N 14°28' W 060°52'0 0.0
2018-Apr-22 22:29N 14°28' W 060°52'0 0.0
2018-Apr-22 21:59N 14°28' W 060°52'0 0.0
2018-Apr-22 21:30N 14°28' W 060°52'0 0.0
2018-Apr-22 21:01N 14°28' W 060°52'0 0.0
2018-Apr-22 20:31N 14°28' W 060°52'0 0.0
2018-Apr-22 20:00N 14°28' W 060°52'1 1.2
2018-Apr-22 19:31N 14°28' W 060°53'1 1.1
2018-Apr-22 19:00N 14°27' W 060°53'1 1.3
2018-Apr-22 18:30N 14°27' W 060°53'3 5.9
2018-Apr-22 18:00N 14°27' W 060°56'510.9
2018-Apr-22 17:30N 14°27' W 061°02'5 7.7
2018-Apr-22 16:55N 14°29' W 061°06'1 0.3
2018-Apr-22 13:19N 14°30' W 061°05'0 0.0
2018-Apr-21 23:17N 14°30' W 061°05'0 0.0
2018-Apr-21 20:30N 14°30' W 061°05'0 0.0
2018-Apr-21 19:55N 14°30' W 061°05'0 0.0
2018-Apr-21 08:12N 14°30' W 061°05'0 0.0
2018-Apr-21 05:29N 14°30' W 061°05'0 0.0
2018-Apr-20 21:01N 14°30' W 061°05'0 0.0
2018-Apr-20 10:05N 14°30' W 061°05'0 4.1
2018-Apr-20 10:00N 14°30' W 061°06'2 3.9
2018-Apr-20 09:30N 14°30' W 061°08'3 6.9
2018-Apr-20 09:01N 14°30' W 061°11'3 6.6
2018-Apr-20 08:30N 14°30' W 061°15'1 1.0
2018-Apr-20 07:57N 14°30' W 061°15'2 3.7
2018-Apr-20 07:27N 14°29' W 061°17'1 3.2
2018-Apr-20 06:59N 14°30' W 061°15'  

Dump ship's entire track history